sensor_id;sensor_type;location;lat;lon;timestamp;P1;durP1;ratioP1;P2;durP2;ratioP2
17151;SDS011;8691;50.828;4.700;2023-08-08T00:01:25;2.95;;;1.90;;
17151;SDS011;8691;50.828;4.700;2023-08-08T00:03:51;4.07;;;1.87;;
17151;SDS011;8691;50.828;4.700;2023-08-08T00:06:19;3.67;;;1.88;;
17151;SDS011;8691;50.828;4.700;2023-08-08T00:08:46;3.53;;;1.88;;
17151;SDS011;8691;50.828;4.700;2023-08-08T00:11:13;2.33;;;1.90;;
17151;SDS011;8691;50.828;4.700;2023-08-08T00:13:40;4.47;;;2.17;;
17151;SDS011;8691;50.828;4.700;2023-08-08T00:16:07;3.17;;;1.65;;
17151;SDS011;8691;50.828;4.700;2023-08-08T00:18:35;5.15;;;2.08;;
17151;SDS011;8691;50.828;4.700;2023-08-08T00:21:01;2.13;;;1.57;;
17151;SDS011;8691;50.828;4.700;2023-08-08T00:23:28;3.37;;;1.87;;
17151;SDS011;8691;50.828;4.700;2023-08-08T00:25:55;3.78;;;2.10;;
17151;SDS011;8691;50.828;4.700;2023-08-08T00:28:22;3.05;;;1.80;;
17151;SDS011;8691;50.828;4.700;2023-08-08T00:30:49;3.43;;;1.90;;
17151;SDS011;8691;50.828;4.700;2023-08-08T00:33:15;5.00;;;1.98;;
17151;SDS011;8691;50.828;4.700;2023-08-08T00:35:42;4.38;;;2.05;;
17151;SDS011;8691;50.828;4.700;2023-08-08T00:38:09;2.10;;;1.77;;
17151;SDS011;8691;50.828;4.700;2023-08-08T00:40:36;4.00;;;2.30;;
17151;SDS011;8691;50.828;4.700;2023-08-08T00:43:03;4.57;;;2.10;;
17151;SDS011;8691;50.828;4.700;2023-08-08T00:45:30;3.25;;;2.05;;
17151;SDS011;8691;50.828;4.700;2023-08-08T00:47:57;4.72;;;2.10;;
17151;SDS011;8691;50.828;4.700;2023-08-08T00:50:24;3.13;;;2.13;;
17151;SDS011;8691;50.828;4.700;2023-08-08T00:52:50;3.77;;;2.00;;
17151;SDS011;8691;50.828;4.700;2023-08-08T00:55:18;5.78;;;2.20;;
17151;SDS011;8691;50.828;4.700;2023-08-08T00:57:44;3.10;;;2.30;;
17151;SDS011;8691;50.828;4.700;2023-08-08T01:00:12;4.32;;;2.40;;
17151;SDS011;8691;50.828;4.700;2023-08-08T01:02:38;4.33;;;2.40;;
17151;SDS011;8691;50.828;4.700;2023-08-08T01:05:05;5.35;;;2.70;;
17151;SDS011;8691;50.828;4.700;2023-08-08T01:07:43;3.30;;;2.10;;
17151;SDS011;8691;50.828;4.700;2023-08-08T01:10:19;5.35;;;2.10;;
17151;SDS011;8691;50.828;4.700;2023-08-08T01:12:48;3.90;;;2.33;;
17151;SDS011;8691;50.828;4.700;2023-08-08T01:15:13;4.37;;;2.20;;
17151;SDS011;8691;50.828;4.700;2023-08-08T01:17:41;3.85;;;2.30;;
17151;SDS011;8691;50.828;4.700;2023-08-08T01:20:07;4.85;;;2.47;;
17151;SDS011;8691;50.828;4.700;2023-08-08T01:22:48;3.85;;;2.17;;
17151;SDS011;8691;50.828;4.700;2023-08-08T01:25:04;4.37;;;2.30;;
17151;SDS011;8691;50.828;4.700;2023-08-08T01:27:31;3.57;;;2.43;;
17151;SDS011;8691;50.828;4.700;2023-08-08T01:29:59;7.38;;;2.35;;
17151;SDS011;8691;50.828;4.700;2023-08-08T01:32:25;5.00;;;2.70;;
17151;SDS011;8691;50.828;4.700;2023-08-08T01:34:52;7.10;;;2.63;;
17151;SDS011;8691;50.828;4.700;2023-08-08T01:37:41;7.60;;;2.53;;
17151;SDS011;8691;50.828;4.700;2023-08-08T01:40:05;4.63;;;2.57;;
17151;SDS011;8691;50.828;4.700;2023-08-08T01:42:31;5.20;;;2.43;;
17151;SDS011;8691;50.828;4.700;2023-08-08T01:44:59;4.70;;;2.50;;
17151;SDS011;8691;50.828;4.700;2023-08-08T01:47:26;3.67;;;2.17;;
17151;SDS011;8691;50.828;4.700;2023-08-08T01:49:53;7.07;;;2.58;;
17151;SDS011;8691;50.828;4.700;2023-08-08T01:52:20;8.18;;;2.90;;
17151;SDS011;8691;50.828;4.700;2023-08-08T01:54:48;5.53;;;2.60;;
17151;SDS011;8691;50.828;4.700;2023-08-08T01:57:15;5.10;;;2.60;;
17151;SDS011;8691;50.828;4.700;2023-08-08T01:59:42;4.30;;;2.10;;
17151;SDS011;8691;50.828;4.700;2023-08-08T02:02:08;6.90;;;2.35;;
17151;SDS011;8691;50.828;4.700;2023-08-08T02:04:36;6.68;;;2.60;;
17151;SDS011;8691;50.828;4.700;2023-08-08T02:07:03;3.53;;;1.90;;
17151;SDS011;8691;50.828;4.700;2023-08-08T02:09:30;4.65;;;2.60;;
17151;SDS011;8691;50.828;4.700;2023-08-08T02:11:56;6.37;;;2.60;;
17151;SDS011;8691;50.828;4.700;2023-08-08T02:14:23;6.07;;;2.80;;
17151;SDS011;8691;50.828;4.700;2023-08-08T02:16:50;7.10;;;2.95;;
17151;SDS011;8691;50.828;4.700;2023-08-08T02:19:18;5.53;;;2.55;;
17151;SDS011;8691;50.828;4.700;2023-08-08T02:21:45;7.25;;;2.70;;
17151;SDS011;8691;50.828;4.700;2023-08-08T02:24:12;7.65;;;2.80;;
17151;SDS011;8691;50.828;4.700;2023-08-08T02:26:39;7.03;;;2.60;;
17151;SDS011;8691;50.828;4.700;2023-08-08T02:29:06;8.27;;;2.83;;
17151;SDS011;8691;50.828;4.700;2023-08-08T02:31:33;5.70;;;2.60;;
17151;SDS011;8691;50.828;4.700;2023-08-08T02:33:59;8.65;;;2.50;;
17151;SDS011;8691;50.828;4.700;2023-08-08T02:36:26;6.70;;;2.30;;
17151;SDS011;8691;50.828;4.700;2023-08-08T02:38:53;5.93;;;2.75;;
17151;SDS011;8691;50.828;4.700;2023-08-08T02:41:20;7.90;;;3.00;;
17151;SDS011;8691;50.828;4.700;2023-08-08T02:43:47;7.65;;;2.92;;
17151;SDS011;8691;50.828;4.700;2023-08-08T02:46:14;7.43;;;2.60;;
17151;SDS011;8691;50.828;4.700;2023-08-08T02:48:41;6.07;;;2.80;;
17151;SDS011;8691;50.828;4.700;2023-08-08T02:51:09;8.45;;;2.97;;
17151;SDS011;8691;50.828;4.700;2023-08-08T02:53:36;5.50;;;2.90;;
17151;SDS011;8691;50.828;4.700;2023-08-08T02:56:03;6.43;;;2.80;;
17151;SDS011;8691;50.828;4.700;2023-08-08T02:58:29;7.33;;;3.00;;
17151;SDS011;8691;50.828;4.700;2023-08-08T03:00:56;9.40;;;3.20;;
17151;SDS011;8691;50.828;4.700;2023-08-08T03:03:23;5.93;;;2.30;;
17151;SDS011;8691;50.828;4.700;2023-08-08T03:05:50;9.30;;;2.97;;
17151;SDS011;8691;50.828;4.700;2023-08-08T03:08:17;6.27;;;2.83;;
17151;SDS011;8691;50.828;4.700;2023-08-08T03:10:44;7.70;;;2.70;;
17151;SDS011;8691;50.828;4.700;2023-08-08T03:13:11;8.82;;;3.20;;
17151;SDS011;8691;50.828;4.700;2023-08-08T03:15:38;4.50;;;2.60;;
17151;SDS011;8691;50.828;4.700;2023-08-08T03:18:04;7.62;;;2.78;;
17151;SDS011;8691;50.828;4.700;2023-08-08T03:20:31;6.70;;;2.72;;
17151;SDS011;8691;50.828;4.700;2023-08-08T03:22:58;9.33;;;3.40;;
17151;SDS011;8691;50.828;4.700;2023-08-08T03:25:25;10.27;;;3.20;;
17151;SDS011;8691;50.828;4.700;2023-08-08T03:27:52;5.83;;;2.47;;
17151;SDS011;8691;50.828;4.700;2023-08-08T03:30:19;6.40;;;2.67;;
17151;SDS011;8691;50.828;4.700;2023-08-08T03:32:46;5.93;;;2.85;;
17151;SDS011;8691;50.828;4.700;2023-08-08T03:35:13;7.88;;;2.97;;
17151;SDS011;8691;50.828;4.700;2023-08-08T03:37:41;6.83;;;2.97;;
17151;SDS011;8691;50.828;4.700;2023-08-08T03:40:07;6.67;;;2.50;;
17151;SDS011;8691;50.828;4.700;2023-08-08T03:42:34;8.02;;;2.97;;
17151;SDS011;8691;50.828;4.700;2023-08-08T03:45:01;7.05;;;3.08;;
17151;SDS011;8691;50.828;4.700;2023-08-08T03:47:29;8.93;;;3.05;;
17151;SDS011;8691;50.828;4.700;2023-08-08T03:49:56;7.82;;;3.17;;
17151;SDS011;8691;50.828;4.700;2023-08-08T03:52:24;5.77;;;3.20;;
17151;SDS011;8691;50.828;4.700;2023-08-08T03:54:51;7.50;;;3.25;;
17151;SDS011;8691;50.828;4.700;2023-08-08T03:57:19;8.82;;;3.25;;
17151;SDS011;8691;50.828;4.700;2023-08-08T03:59:45;8.17;;;3.60;;
17151;SDS011;8691;50.828;4.700;2023-08-08T04:02:12;5.87;;;2.53;;
17151;SDS011;8691;50.828;4.700;2023-08-08T04:04:39;5.93;;;2.80;;
17151;SDS011;8691;50.828;4.700;2023-08-08T04:07:05;8.20;;;3.60;;
17151;SDS011;8691;50.828;4.700;2023-08-08T04:09:32;8.15;;;3.20;;
17151;SDS011;8691;50.828;4.700;2023-08-08T04:11:59;7.10;;;2.60;;
17151;SDS011;8691;50.828;4.700;2023-08-08T04:14:26;8.30;;;3.58;;
17151;SDS011;8691;50.828;4.700;2023-08-08T04:16:54;8.68;;;3.60;;
17151;SDS011;8691;50.828;4.700;2023-08-08T04:19:21;8.43;;;3.53;;
17151;SDS011;8691;50.828;4.700;2023-08-08T04:21:48;8.07;;;3.40;;
17151;SDS011;8691;50.828;4.700;2023-08-08T04:24:15;6.40;;;2.93;;
17151;SDS011;8691;50.828;4.700;2023-08-08T04:26:42;6.95;;;3.53;;
17151;SDS011;8691;50.828;4.700;2023-08-08T04:29:08;10.12;;;3.75;;
17151;SDS011;8691;50.828;4.700;2023-08-08T04:31:35;8.85;;;3.35;;
17151;SDS011;8691;50.828;4.700;2023-08-08T04:34:02;8.43;;;3.47;;
17151;SDS011;8691;50.828;4.700;2023-08-08T04:36:29;10.70;;;3.67;;
17151;SDS011;8691;50.828;4.700;2023-08-08T04:38:56;9.07;;;3.80;;
17151;SDS011;8691;50.828;4.700;2023-08-08T04:41:23;7.43;;;3.65;;
17151;SDS011;8691;50.828;4.700;2023-08-08T04:43:50;7.75;;;4.00;;
17151;SDS011;8691;50.828;4.700;2023-08-08T04:46:17;7.68;;;3.72;;
17151;SDS011;8691;50.828;4.700;2023-08-08T04:48:43;8.80;;;2.70;;
17151;SDS011;8691;50.828;4.700;2023-08-08T04:51:10;8.10;;;3.55;;
17151;SDS011;8691;50.828;4.700;2023-08-08T04:53:37;8.20;;;3.42;;
17151;SDS011;8691;50.828;4.700;2023-08-08T04:56:05;8.63;;;3.77;;
17151;SDS011;8691;50.828;4.700;2023-08-08T04:58:32;8.23;;;3.33;;
17151;SDS011;8691;50.828;4.700;2023-08-08T05:00:58;7.50;;;3.03;;
17151;SDS011;8691;50.828;4.700;2023-08-08T05:03:25;3.90;;;2.60;;
17151;SDS011;8691;50.828;4.700;2023-08-08T05:05:52;9.90;;;3.25;;
17151;SDS011;8691;50.828;4.700;2023-08-08T05:08:19;7.32;;;3.12;;
17151;SDS011;8691;50.828;4.700;2023-08-08T05:10:46;9.25;;;3.17;;
17151;SDS011;8691;50.828;4.700;2023-08-08T05:13:13;10.10;;;3.77;;
17151;SDS011;8691;50.828;4.700;2023-08-08T05:15:39;5.40;;;3.00;;
17151;SDS011;8691;50.828;4.700;2023-08-08T05:18:06;4.60;;;2.60;;
17151;SDS011;8691;50.828;4.700;2023-08-08T05:20:33;10.80;;;3.20;;
17151;SDS011;8691;50.828;4.700;2023-08-08T05:23:00;7.85;;;2.72;;
17151;SDS011;8691;50.828;4.700;2023-08-08T05:25:27;6.33;;;2.87;;
17151;SDS011;8691;50.828;4.700;2023-08-08T05:27:54;8.37;;;3.00;;
17151;SDS011;8691;50.828;4.700;2023-08-08T05:30:21;5.90;;;2.75;;
17151;SDS011;8691;50.828;4.700;2023-08-08T05:32:47;7.50;;;2.80;;
17151;SDS011;8691;50.828;4.700;2023-08-08T05:35:14;9.70;;;2.85;;
17151;SDS011;8691;50.828;4.700;2023-08-08T05:37:41;7.72;;;2.78;;
17151;SDS011;8691;50.828;4.700;2023-08-08T05:40:08;4.87;;;2.40;;
17151;SDS011;8691;50.828;4.700;2023-08-08T05:42:35;7.15;;;2.80;;
17151;SDS011;8691;50.828;4.700;2023-08-08T05:45:02;9.20;;;2.80;;
17151;SDS011;8691;50.828;4.700;2023-08-08T05:47:29;7.50;;;2.70;;
17151;SDS011;8691;50.828;4.700;2023-08-08T05:49:56;7.93;;;2.57;;
17151;SDS011;8691;50.828;4.700;2023-08-08T05:52:23;7.78;;;2.40;;
17151;SDS011;8691;50.828;4.700;2023-08-08T05:54:50;6.38;;;2.20;;
17151;SDS011;8691;50.828;4.700;2023-08-08T05:57:17;7.33;;;2.00;;
17151;SDS011;8691;50.828;4.700;2023-08-08T05:59:43;4.57;;;1.90;;
17151;SDS011;8691;50.828;4.700;2023-08-08T06:02:10;5.43;;;1.97;;
17151;SDS011;8691;50.828;4.700;2023-08-08T06:04:37;5.07;;;1.98;;
17151;SDS011;8691;50.828;4.700;2023-08-08T06:07:04;4.00;;;1.63;;
17151;SDS011;8691;50.828;4.700;2023-08-08T06:09:31;5.75;;;2.20;;
17151;SDS011;8691;50.828;4.700;2023-08-08T06:11:58;4.33;;;1.67;;
17151;SDS011;8691;50.828;4.700;2023-08-08T06:14:24;6.73;;;1.90;;
17151;SDS011;8691;50.828;4.700;2023-08-08T06:16:51;5.32;;;1.90;;
17151;SDS011;8691;50.828;4.700;2023-08-08T06:19:18;7.47;;;1.87;;
17151;SDS011;8691;50.828;4.700;2023-08-08T06:21:45;6.53;;;2.08;;
17151;SDS011;8691;50.828;4.700;2023-08-08T06:24:12;7.35;;;2.25;;
17151;SDS011;8691;50.828;4.700;2023-08-08T06:26:39;6.63;;;2.00;;
17151;SDS011;8691;50.828;4.700;2023-08-08T06:29:06;6.00;;;2.03;;
17151;SDS011;8691;50.828;4.700;2023-08-08T06:31:33;7.03;;;2.30;;
17151;SDS011;8691;50.828;4.700;2023-08-08T06:34:00;5.53;;;2.00;;
17151;SDS011;8691;50.828;4.700;2023-08-08T06:36:27;5.90;;;1.90;;
17151;SDS011;8691;50.828;4.700;2023-08-08T06:38:54;5.13;;;1.80;;
17151;SDS011;8691;50.828;4.700;2023-08-08T06:41:22;5.53;;;2.05;;
17151;SDS011;8691;50.828;4.700;2023-08-08T06:43:49;4.95;;;1.80;;
17151;SDS011;8691;50.828;4.700;2023-08-08T06:46:16;4.65;;;1.85;;
17151;SDS011;8691;50.828;4.700;2023-08-08T06:48:43;3.90;;;1.30;;
17151;SDS011;8691;50.828;4.700;2023-08-08T06:51:10;5.57;;;1.80;;
17151;SDS011;8691;50.828;4.700;2023-08-08T06:53:37;4.43;;;1.77;;
17151;SDS011;8691;50.828;4.700;2023-08-08T06:56:04;5.43;;;1.53;;
17151;SDS011;8691;50.828;4.700;2023-08-08T06:58:31;4.43;;;1.60;;
17151;SDS011;8691;50.828;4.700;2023-08-08T07:00:58;3.03;;;1.47;;
17151;SDS011;8691;50.828;4.700;2023-08-08T07:03:26;5.65;;;1.85;;
17151;SDS011;8691;50.828;4.700;2023-08-08T07:05:53;4.82;;;1.65;;
17151;SDS011;8691;50.828;4.700;2023-08-08T07:08:20;3.90;;;1.67;;
17151;SDS011;8691;50.828;4.700;2023-08-08T07:10:48;7.10;;;1.75;;
17151;SDS011;8691;50.828;4.700;2023-08-08T07:13:15;6.20;;;1.70;;
17151;SDS011;8691;50.828;4.700;2023-08-08T07:15:41;4.10;;;1.52;;
17151;SDS011;8691;50.828;4.700;2023-08-08T07:18:08;5.38;;;1.80;;
17151;SDS011;8691;50.828;4.700;2023-08-08T07:20:35;5.73;;;1.60;;
17151;SDS011;8691;50.828;4.700;2023-08-08T07:23:03;4.97;;;1.58;;
17151;SDS011;8691;50.828;4.700;2023-08-08T07:25:29;6.83;;;1.70;;
17151;SDS011;8691;50.828;4.700;2023-08-08T07:27:57;4.45;;;1.50;;
17151;SDS011;8691;50.828;4.700;2023-08-08T07:30:24;1.83;;;1.23;;
17151;SDS011;8691;50.828;4.700;2023-08-08T07:32:51;6.03;;;1.90;;
17151;SDS011;8691;50.828;4.700;2023-08-08T07:35:18;3.83;;;1.67;;
17151;SDS011;8691;50.828;4.700;2023-08-08T07:37:45;4.18;;;1.62;;
17151;SDS011;8691;50.828;4.700;2023-08-08T07:40:15;5.20;;;1.47;;
17151;SDS011;8691;50.828;4.700;2023-08-08T07:42:42;4.07;;;1.62;;
17151;SDS011;8691;50.828;4.700;2023-08-08T07:45:09;5.05;;;1.73;;
17151;SDS011;8691;50.828;4.700;2023-08-08T07:47:36;4.70;;;1.50;;
17151;SDS011;8691;50.828;4.700;2023-08-08T07:50:03;5.55;;;1.80;;
17151;SDS011;8691;50.828;4.700;2023-08-08T07:52:30;6.07;;;1.88;;
17151;SDS011;8691;50.828;4.700;2023-08-08T07:54:57;5.12;;;1.67;;
17151;SDS011;8691;50.828;4.700;2023-08-08T07:57:24;3.63;;;1.40;;
17151;SDS011;8691;50.828;4.700;2023-08-08T07:59:51;3.75;;;1.90;;
17151;SDS011;8691;50.828;4.700;2023-08-08T08:02:17;5.25;;;1.70;;
17151;SDS011;8691;50.828;4.700;2023-08-08T08:04:45;4.75;;;1.75;;
17151;SDS011;8691;50.828;4.700;2023-08-08T08:07:11;4.57;;;1.60;;
17151;SDS011;8691;50.828;4.700;2023-08-08T08:09:38;4.30;;;1.80;;
17151;SDS011;8691;50.828;4.700;2023-08-08T08:12:05;4.07;;;1.70;;
17151;SDS011;8691;50.828;4.700;2023-08-08T08:14:32;5.27;;;1.80;;
17151;SDS011;8691;50.828;4.700;2023-08-08T08:16:59;3.35;;;1.60;;
17151;SDS011;8691;50.828;4.700;2023-08-08T08:19:25;3.57;;;1.50;;
17151;SDS011;8691;50.828;4.700;2023-08-08T08:21:52;4.38;;;1.73;;
17151;SDS011;8691;50.828;4.700;2023-08-08T08:24:19;5.40;;;1.70;;
17151;SDS011;8691;50.828;4.700;2023-08-08T08:26:46;5.82;;;1.90;;
17151;SDS011;8691;50.828;4.700;2023-08-08T08:29:13;6.07;;;1.73;;
17151;SDS011;8691;50.828;4.700;2023-08-08T08:31:39;5.73;;;1.57;;
17151;SDS011;8691;50.828;4.700;2023-08-08T08:34:06;4.60;;;1.70;;
17151;SDS011;8691;50.828;4.700;2023-08-08T08:36:33;5.28;;;1.55;;
17151;SDS011;8691;50.828;4.700;2023-08-08T08:39:00;6.60;;;1.60;;
17151;SDS011;8691;50.828;4.700;2023-08-08T08:41:27;5.65;;;1.90;;
17151;SDS011;8691;50.828;4.700;2023-08-08T08:43:54;4.23;;;1.70;;
17151;SDS011;8691;50.828;4.700;2023-08-08T08:46:21;4.75;;;1.60;;
17151;SDS011;8691;50.828;4.700;2023-08-08T08:48:51;4.17;;;1.80;;
17151;SDS011;8691;50.828;4.700;2023-08-08T08:51:14;4.50;;;1.30;;
17151;SDS011;8691;50.828;4.700;2023-08-08T08:53:41;5.53;;;1.73;;
17151;SDS011;8691;50.828;4.700;2023-08-08T08:56:08;4.23;;;1.73;;
17151;SDS011;8691;50.828;4.700;2023-08-08T08:58:35;5.63;;;1.67;;
17151;SDS011;8691;50.828;4.700;2023-08-08T09:01:03;3.58;;;1.40;;
17151;SDS011;8691;50.828;4.700;2023-08-08T09:03:30;4.87;;;1.47;;
17151;SDS011;8691;50.828;4.700;2023-08-08T09:05:58;5.30;;;1.93;;
17151;SDS011;8691;50.828;4.700;2023-08-08T09:08:25;5.32;;;1.45;;
17151;SDS011;8691;50.828;4.700;2023-08-08T09:10:51;3.07;;;1.60;;
17151;SDS011;8691;50.828;4.700;2023-08-08T09:13:18;5.78;;;1.60;;
17151;SDS011;8691;50.828;4.700;2023-08-08T09:15:46;4.62;;;1.55;;
17151;SDS011;8691;50.828;4.700;2023-08-08T09:18:13;3.40;;;1.37;;
17151;SDS011;8691;50.828;4.700;2023-08-08T09:20:40;5.40;;;1.45;;
17151;SDS011;8691;50.828;4.700;2023-08-08T09:23:08;3.70;;;1.37;;
17151;SDS011;8691;50.828;4.700;2023-08-08T09:25:34;4.68;;;1.60;;
17151;SDS011;8691;50.828;4.700;2023-08-08T09:28:01;4.67;;;1.43;;
17151;SDS011;8691;50.828;4.700;2023-08-08T09:30:28;6.13;;;1.53;;
17151;SDS011;8691;50.828;4.700;2023-08-08T09:32:57;3.40;;;1.35;;
17151;SDS011;8691;50.828;4.700;2023-08-08T09:35:23;3.50;;;1.42;;
17151;SDS011;8691;50.828;4.700;2023-08-08T09:37:49;4.07;;;1.27;;
17151;SDS011;8691;50.828;4.700;2023-08-08T09:40:16;4.22;;;1.60;;
17151;SDS011;8691;50.828;4.700;2023-08-08T09:42:43;3.93;;;1.60;;
17151;SDS011;8691;50.828;4.700;2023-08-08T09:45:10;4.47;;;1.50;;
17151;SDS011;8691;50.828;4.700;2023-08-08T09:47:37;5.10;;;1.50;;
17151;SDS011;8691;50.828;4.700;2023-08-08T09:50:04;5.27;;;1.47;;
17151;SDS011;8691;50.828;4.700;2023-08-08T09:52:31;4.13;;;1.50;;
17151;SDS011;8691;50.828;4.700;2023-08-08T09:54:58;4.68;;;1.73;;
17151;SDS011;8691;50.828;4.700;2023-08-08T09:57:25;4.93;;;1.50;;
17151;SDS011;8691;50.828;4.700;2023-08-08T09:59:52;3.63;;;1.30;;
17151;SDS011;8691;50.828;4.700;2023-08-08T10:02:18;4.90;;;1.50;;
17151;SDS011;8691;50.828;4.700;2023-08-08T10:04:46;3.93;;;1.57;;
17151;SDS011;8691;50.828;4.700;2023-08-08T10:07:14;3.15;;;1.50;;
17151;SDS011;8691;50.828;4.700;2023-08-08T10:09:41;3.57;;;1.70;;
17151;SDS011;8691;50.828;4.700;2023-08-08T10:12:08;4.05;;;1.52;;
17151;SDS011;8691;50.828;4.700;2023-08-08T10:14:36;3.87;;;1.60;;
17151;SDS011;8691;50.828;4.700;2023-08-08T10:17:03;4.93;;;1.80;;
17151;SDS011;8691;50.828;4.700;2023-08-08T10:19:32;2.53;;;1.60;;
17151;SDS011;8691;50.828;4.700;2023-08-08T10:22:03;3.60;;;1.40;;
17151;SDS011;8691;50.828;4.700;2023-08-08T10:24:26;2.77;;;1.60;;
17151;SDS011;8691;50.828;4.700;2023-08-08T10:26:54;3.57;;;1.70;;
17151;SDS011;8691;50.828;4.700;2023-08-08T10:29:20;4.82;;;1.70;;
17151;SDS011;8691;50.828;4.700;2023-08-08T10:31:54;3.50;;;1.65;;
17151;SDS011;8691;50.828;4.700;2023-08-08T10:37:16;4.28;;;1.58;;
17151;SDS011;8691;50.828;4.700;2023-08-08T10:39:59;5.60;;;1.80;;
17151;SDS011;8691;50.828;4.700;2023-08-08T10:42:26;2.22;;;1.23;;
17151;SDS011;8691;50.828;4.700;2023-08-08T10:44:54;5.40;;;1.40;;
17151;SDS011;8691;50.828;4.700;2023-08-08T10:47:23;4.57;;;1.50;;
17151;SDS011;8691;50.828;4.700;2023-08-08T10:49:59;5.28;;;1.98;;
17151;SDS011;8691;50.828;4.700;2023-08-08T10:52:25;5.53;;;2.00;;
17151;SDS011;8691;50.828;4.700;2023-08-08T10:54:52;5.12;;;1.83;;
17151;SDS011;8691;50.828;4.700;2023-08-08T10:57:18;3.67;;;1.27;;
17151;SDS011;8691;50.828;4.700;2023-08-08T10:59:45;4.87;;;2.00;;
17151;SDS011;8691;50.828;4.700;2023-08-08T11:02:12;4.55;;;1.52;;
17151;SDS011;8691;50.828;4.700;2023-08-08T11:04:38;2.47;;;1.47;;
17151;SDS011;8691;50.828;4.700;2023-08-08T11:07:05;3.58;;;1.55;;
17151;SDS011;8691;50.828;4.700;2023-08-08T11:09:32;4.22;;;1.40;;
17151;SDS011;8691;50.828;4.700;2023-08-08T11:11:59;3.50;;;1.45;;
17151;SDS011;8691;50.828;4.700;2023-08-08T11:14:26;4.78;;;1.60;;
17151;SDS011;8691;50.828;4.700;2023-08-08T11:16:53;4.47;;;1.70;;
17151;SDS011;8691;50.828;4.700;2023-08-08T11:19:20;5.03;;;1.67;;
17151;SDS011;8691;50.828;4.700;2023-08-08T11:21:47;5.27;;;1.30;;
17151;SDS011;8691;50.828;4.700;2023-08-08T11:24:13;4.80;;;2.05;;
17151;SDS011;8691;50.828;4.700;2023-08-08T11:26:40;3.03;;;1.37;;
17151;SDS011;8691;50.828;4.700;2023-08-08T11:29:07;3.37;;;1.50;;
17151;SDS011;8691;50.828;4.700;2023-08-08T11:31:34;3.80;;;1.30;;
17151;SDS011;8691;50.828;4.700;2023-08-08T11:34:00;3.60;;;1.37;;
17151;SDS011;8691;50.828;4.700;2023-08-08T11:36:30;3.43;;;1.40;;
17151;SDS011;8691;50.828;4.700;2023-08-08T11:38:57;2.88;;;1.30;;
17151;SDS011;8691;50.828;4.700;2023-08-08T11:41:24;3.67;;;1.40;;
17151;SDS011;8691;50.828;4.700;2023-08-08T11:43:51;4.03;;;1.27;;
17151;SDS011;8691;50.828;4.700;2023-08-08T11:46:17;3.60;;;1.23;;
17151;SDS011;8691;50.828;4.700;2023-08-08T11:48:47;5.03;;;1.20;;
17151;SDS011;8691;50.828;4.700;2023-08-08T11:51:14;3.10;;;1.27;;
17151;SDS011;8691;50.828;4.700;2023-08-08T11:53:53;2.47;;;1.10;;
17151;SDS011;8691;50.828;4.700;2023-08-08T11:56:17;3.50;;;0.90;;
17151;SDS011;8691;50.828;4.700;2023-08-08T11:58:43;2.38;;;0.82;;
17151;SDS011;8691;50.828;4.700;2023-08-08T12:01:10;2.50;;;1.20;;
17151;SDS011;8691;50.828;4.700;2023-08-08T12:03:37;2.50;;;1.00;;
17151;SDS011;8691;50.828;4.700;2023-08-08T12:06:14;1.83;;;0.93;;
17151;SDS011;8691;50.828;4.700;2023-08-08T12:08:44;3.47;;;0.93;;
17151;SDS011;8691;50.828;4.700;2023-08-08T12:11:11;2.45;;;0.90;;
17151;SDS011;8691;50.828;4.700;2023-08-08T12:13:38;1.60;;;0.87;;
17151;SDS011;8691;50.828;4.700;2023-08-08T12:16:05;2.83;;;1.10;;
17151;SDS011;8691;50.828;4.700;2023-08-08T12:18:32;1.77;;;1.00;;
17151;SDS011;8691;50.828;4.700;2023-08-08T12:20:58;2.30;;;1.13;;
17151;SDS011;8691;50.828;4.700;2023-08-08T12:23:25;2.00;;;1.00;;
17151;SDS011;8691;50.828;4.700;2023-08-08T12:25:52;1.37;;;1.00;;
17151;SDS011;8691;50.828;4.700;2023-08-08T12:28:19;3.50;;;1.23;;
17151;SDS011;8691;50.828;4.700;2023-08-08T12:30:46;2.47;;;1.20;;
17151;SDS011;8691;50.828;4.700;2023-08-08T12:33:12;4.60;;;1.23;;
17151;SDS011;8691;50.828;4.700;2023-08-08T12:35:39;2.58;;;1.05;;
17151;SDS011;8691;50.828;4.700;2023-08-08T12:38:06;2.60;;;1.00;;
17151;SDS011;8691;50.828;4.700;2023-08-08T12:40:33;2.17;;;1.17;;
17151;SDS011;8691;50.828;4.700;2023-08-08T12:43:00;3.47;;;1.00;;
17151;SDS011;8691;50.828;4.700;2023-08-08T12:45:26;2.47;;;1.00;;
17151;SDS011;8691;50.828;4.700;2023-08-08T12:47:53;3.00;;;1.00;;
17151;SDS011;8691;50.828;4.700;2023-08-08T12:50:20;2.67;;;1.10;;
17151;SDS011;8691;50.828;4.700;2023-08-08T12:52:47;1.90;;;0.93;;
17151;SDS011;8691;50.828;4.700;2023-08-08T12:55:14;3.13;;;1.17;;
17151;SDS011;8691;50.828;4.700;2023-08-08T12:57:40;3.58;;;1.12;;
17151;SDS011;8691;50.828;4.700;2023-08-08T13:00:07;2.63;;;1.10;;
17151;SDS011;8691;50.828;4.700;2023-08-08T13:02:34;2.20;;;1.12;;
17151;SDS011;8691;50.828;4.700;2023-08-08T13:05:01;2.42;;;1.20;;
17151;SDS011;8691;50.828;4.700;2023-08-08T13:07:28;3.17;;;1.20;;
17151;SDS011;8691;50.828;4.700;2023-08-08T13:09:56;3.33;;;1.10;;
17151;SDS011;8691;50.828;4.700;2023-08-08T13:12:23;2.05;;;1.10;;
17151;SDS011;8691;50.828;4.700;2023-08-08T13:14:50;2.55;;;1.00;;
17151;SDS011;8691;50.828;4.700;2023-08-08T13:17:16;2.30;;;1.20;;
17151;SDS011;8691;50.828;4.700;2023-08-08T13:19:43;4.03;;;1.20;;
17151;SDS011;8691;50.828;4.700;2023-08-08T13:22:10;1.52;;;0.98;;
17151;SDS011;8691;50.828;4.700;2023-08-08T13:24:37;2.90;;;1.30;;
17151;SDS011;8691;50.828;4.700;2023-08-08T13:27:04;1.83;;;1.02;;
17151;SDS011;8691;50.828;4.700;2023-08-08T13:29:31;2.65;;;1.15;;
17151;SDS011;8691;50.828;4.700;2023-08-08T13:31:58;2.73;;;1.00;;
17151;SDS011;8691;50.828;4.700;2023-08-08T13:34:25;3.28;;;1.17;;
17151;SDS011;8691;50.828;4.700;2023-08-08T13:36:52;1.87;;;0.83;;
17151;SDS011;8691;50.828;4.700;2023-08-08T13:39:19;2.97;;;1.20;;
17151;SDS011;8691;50.828;4.700;2023-08-08T13:41:46;1.77;;;1.00;;
17151;SDS011;8691;50.828;4.700;2023-08-08T13:44:13;1.90;;;1.10;;
17151;SDS011;8691;50.828;4.700;2023-08-08T13:46:40;2.22;;;1.10;;
17151;SDS011;8691;50.828;4.700;2023-08-08T13:49:07;4.65;;;1.40;;
17151;SDS011;8691;50.828;4.700;2023-08-08T13:51:34;3.30;;;1.02;;
17151;SDS011;8691;50.828;4.700;2023-08-08T13:54:02;1.77;;;1.00;;
17151;SDS011;8691;50.828;4.700;2023-08-08T13:56:28;3.10;;;1.10;;
17151;SDS011;8691;50.828;4.700;2023-08-08T13:58:56;2.53;;;0.90;;
17151;SDS011;8691;50.828;4.700;2023-08-08T14:01:22;2.67;;;1.00;;
17151;SDS011;8691;50.828;4.700;2023-08-08T14:03:49;1.60;;;0.70;;
17151;SDS011;8691;50.828;4.700;2023-08-08T14:06:16;1.87;;;0.80;;
17151;SDS011;8691;50.828;4.700;2023-08-08T14:08:43;2.53;;;0.90;;
17151;SDS011;8691;50.828;4.700;2023-08-08T14:11:10;1.67;;;1.10;;
17151;SDS011;8691;50.828;4.700;2023-08-08T14:13:37;1.80;;;1.03;;
17151;SDS011;8691;50.828;4.700;2023-08-08T14:16:05;2.17;;;0.90;;
17151;SDS011;8691;50.828;4.700;2023-08-08T14:18:32;1.47;;;0.80;;
17151;SDS011;8691;50.828;4.700;2023-08-08T14:20:59;2.00;;;0.90;;
17151;SDS011;8691;50.828;4.700;2023-08-08T14:23:26;2.07;;;0.90;;
17151;SDS011;8691;50.828;4.700;2023-08-08T14:25:52;1.65;;;0.88;;
17151;SDS011;8691;50.828;4.700;2023-08-08T14:28:19;1.67;;;0.80;;
17151;SDS011;8691;50.828;4.700;2023-08-08T14:30:46;2.62;;;0.90;;
17151;SDS011;8691;50.828;4.700;2023-08-08T14:33:14;2.73;;;0.97;;
17151;SDS011;8691;50.828;4.700;2023-08-08T14:35:40;1.85;;;1.08;;
17151;SDS011;8691;50.828;4.700;2023-08-08T14:38:06;1.57;;;0.80;;
17151;SDS011;8691;50.828;4.700;2023-08-08T14:40:33;2.35;;;0.80;;
17151;SDS011;8691;50.828;4.700;2023-08-08T14:43:04;2.37;;;0.90;;
17151;SDS011;8691;50.828;4.700;2023-08-08T14:45:31;3.05;;;1.00;;
17151;SDS011;8691;50.828;4.700;2023-08-08T14:47:58;2.05;;;0.90;;
17151;SDS011;8691;50.828;4.700;2023-08-08T14:50:24;1.40;;;0.80;;
17151;SDS011;8691;50.828;4.700;2023-08-08T14:52:51;1.73;;;0.90;;
17151;SDS011;8691;50.828;4.700;2023-08-08T14:55:18;1.80;;;0.90;;
17151;SDS011;8691;50.828;4.700;2023-08-08T14:57:45;1.70;;;0.80;;
17151;SDS011;8691;50.828;4.700;2023-08-08T15:00:12;1.97;;;0.93;;
17151;SDS011;8691;50.828;4.700;2023-08-08T15:02:39;1.80;;;0.82;;